Time;durP1;ratioP1;P1;durP2;ratioP2;P2;SDS_P1;SDS_P2;PMS_P1;PMS_P2;Temp;Humidity;BMP_temperature;BMP_pressure;BME280_temperature;BME280_humidity;BME280_pressure;Samples;Min_cycle;Max_cycle;Signal;HPM_P1;HPM_P2
2022/04/03 00:02:12;;;;;;;3.40;1.73;;;;;;;;;;5093035;28;20231;-77
2022/04/03 00:04:40;;;;;;;1.98;1.60;;;;;;;;;;5093833;28;20224;-77
2022/04/03 00:07:07;;;;;;;1.60;1.50;;;;;;;;;;5092416;28;20212;-75
2022/04/03 00:09:34;;;;;;;1.65;1.55;;;;;;;;;;5093272;28;20641;-77
2022/04/03 00:12:03;;;;;;;1.90;1.70;;;;;;;;;;5093165;28;20200;-76
2022/04/03 00:14:30;;;;;;;2.53;2.22;;;;;;;;;;5093802;28;20314;-76
2022/04/03 00:16:58;;;;;;;2.40;2.20;;;;;;;;;;5093857;28;20295;-77
2022/04/03 00:19:27;;;;;;;1.95;1.70;;;;;;;;;;5093218;28;20819;-77
2022/04/03 00:21:54;;;;;;;2.88;1.60;;;;;;;;;;5092783;28;20755;-77
2022/04/03 00:24:21;;;;;;;2.38;1.75;;;;;;;;;;5093314;28;20270;-75
2022/04/03 00:26:48;;;;;;;1.70;1.60;;;;;;;;;;5092914;28;20205;-77
2022/04/03 00:29:15;;;;;;;2.05;1.88;;;;;;;;;;5093342;28;20257;-76
2022/04/03 00:31:43;;;;;;;1.58;1.40;;;;;;;;;;5092806;28;20204;-76
2022/04/03 00:34:10;;;;;;;2.80;1.60;;;;;;;;;;5092939;28;20220;-77
2022/04/03 00:36:38;;;;;;;1.50;1.40;;;;;;;;;;5092548;28;20723;-77
2022/04/03 00:39:06;;;;;;;1.92;1.73;;;;;;;;;;5093073;28;20623;-76
2022/04/03 00:41:33;;;;;;;1.50;1.40;;;;;;;;;;5092071;28;20239;-77
2022/04/03 00:44:01;;;;;;;2.33;1.50;;;;;;;;;;5092832;28;20769;-77
2022/04/03 00:46:29;;;;;;;1.42;1.30;;;;;;;;;;5092764;28;20211;-76
2022/04/03 00:48:57;;;;;;;1.83;1.40;;;;;;;;;;5093041;28;20755;-77
2022/04/03 00:51:25;;;;;;;1.60;1.50;;;;;;;;;;5092724;28;20196;-76
2022/04/03 00:53:53;;;;;;;1.75;1.60;;;;;;;;;;5092067;28;20649;-77
2022/04/03 00:56:21;;;;;;;2.45;2.20;;;;;;;;;;5092722;28;20199;-77
2022/04/03 00:58:50;;;;;;;1.48;1.38;;;;;;;;;;5092672;28;20299;-76
2022/04/03 01:01:18;;;;;;;1.60;1.50;;;;;;;;;;5092314;28;20254;-76
2022/04/03 01:03:45;;;;;;;1.80;1.70;;;;;;;;;;5092193;28;20303;-77
2022/04/03 01:06:12;;;;;;;1.83;1.73;;;;;;;;;;5092366;28;20203;-76
2022/04/03 01:08:42;;;;;;;2.65;1.90;;;;;;;;;;5091740;28;20208;-77
2022/04/03 01:11:11;;;;;;;2.72;1.50;;;;;;;;;;5092610;28;20291;-76
2022/04/03 01:13:46;;;;;;;1.58;1.48;;;;;;;;;;5092183;28;20247;-76
2022/04/03 01:16:13;;;;;;;3.78;2.13;;;;;;;;;;5092532;28;20253;-77
2022/04/03 01:18:41;;;;;;;1.55;1.45;;;;;;;;;;5091560;28;20203;-77
2022/04/03 01:21:08;;;;;;;1.63;1.50;;;;;;;;;;5092303;28;20610;-77
2022/04/03 01:23:35;;;;;;;1.90;1.75;;;;;;;;;;5091411;28;20588;-77
2022/04/03 01:26:05;;;;;;;2.53;1.67;;;;;;;;;;5092446;28;20725;-76
2022/04/03 01:28:32;;;;;;;1.60;1.50;;;;;;;;;;5092112;28;20294;-77
2022/04/03 01:31:00;;;;;;;1.67;1.58;;;;;;;;;;5091918;28;20200;-77
2022/04/03 01:33:27;;;;;;;1.80;1.70;;;;;;;;;;5090966;28;20655;-76
2022/04/03 01:35:54;;;;;;;1.95;1.85;;;;;;;;;;5092285;28;20201;-76
2022/04/03 01:38:21;;;;;;;1.75;1.65;;;;;;;;;;5091607;28;20583;-76
2022/04/03 01:40:49;;;;;;;2.00;1.80;;;;;;;;;;5091683;28;20204;-77
2022/04/03 01:43:17;;;;;;;1.70;1.60;;;;;;;;;;5090909;28;20220;-76
2022/04/03 01:45:45;;;;;;;2.28;1.73;;;;;;;;;;5091474;28;20204;-76
2022/04/03 01:48:12;;;;;;;1.38;1.27;;;;;;;;;;5091055;28;20200;-77
2022/04/03 01:50:39;;;;;;;1.85;1.70;;;;;;;;;;5092148;28;20257;-74
2022/04/03 01:53:07;;;;;;;1.35;1.25;;;;;;;;;;5091381;28;20224;-76
2022/04/03 01:55:34;;;;;;;2.25;1.70;;;;;;;;;;5091634;28;20200;-77
2022/04/03 01:58:07;;;;;;;1.75;1.60;;;;;;;;;;5091652;28;20200;-75
2022/04/03 02:00:35;;;;;;;3.03;1.67;;;;;;;;;;5091846;28;20606;-76
2022/04/03 02:03:02;;;;;;;1.40;1.30;;;;;;;;;;5091532;28;20269;-76
2022/04/03 02:05:30;;;;;;;1.70;1.60;;;;;;;;;;5091612;28;20634;-76
2022/04/03 02:07:57;;;;;;;2.38;1.30;;;;;;;;;;5091558;28;20249;-76
2022/04/03 02:10:24;;;;;;;1.73;1.63;;;;;;;;;;5091353;28;20708;-76
2022/04/03 02:12:51;;;;;;;1.40;1.33;;;;;;;;;;5091217;28;20228;-76
2022/04/03 02:15:19;;;;;;;1.55;1.45;;;;;;;;;;5091488;28;20208;-76
2022/04/03 02:17:47;;;;;;;1.95;1.77;;;;;;;;;;5091797;28;20210;-74
2022/04/03 02:20:15;;;;;;;2.63;1.60;;;;;;;;;;5091352;28;20200;-76
2022/04/03 02:22:42;;;;;;;1.50;1.40;;;;;;;;;;5090648;28;20726;-75
2022/04/03 02:25:11;;;;;;;1.10;1.10;;;;;;;;;;5091347;28;20212;-76
2022/04/03 02:27:39;;;;;;;1.30;1.20;;;;;;;;;;5091386;28;20201;-76
2022/04/03 02:30:09;;;;;;;2.47;1.50;;;;;;;;;;5091997;28;20696;-76
2022/04/03 02:32:38;;;;;;;2.38;2.17;;;;;;;;;;5095696;28;20196;-76
2022/04/03 02:35:09;;;;;;;2.22;1.27;;;;;;;;;;5095195;28;20200;-76
2022/04/03 02:37:38;;;;;;;1.50;1.40;;;;;;;;;;5095498;28;20200;-76
2022/04/03 02:40:07;;;;;;;1.58;1.48;;;;;;;;;;5095064;28;20227;-76
2022/04/03 02:42:35;;;;;;;1.40;1.30;;;;;;;;;;5095212;28;20216;-76
2022/04/03 02:45:04;;;;;;;1.92;1.52;;;;;;;;;;5095039;28;20230;-75
2022/04/03 02:47:32;;;;;;;1.63;1.35;;;;;;;;;;5095325;28;20215;-76
2022/04/03 02:49:59;;;;;;;1.73;1.63;;;;;;;;;;5095123;28;20265;-76
2022/04/03 02:52:28;;;;;;;3.35;1.85;;;;;;;;;;5094630;28;20196;-75
2022/04/03 02:54:56;;;;;;;1.90;1.80;;;;;;;;;;5094552;28;20216;-76
2022/04/03 02:57:24;;;;;;;1.83;1.73;;;;;;;;;;5095199;28;20219;-76
2022/04/03 02:59:52;;;;;;;1.67;1.58;;;;;;;;;;5094992;28;20196;-76
2022/04/03 03:02:19;;;;;;;2.55;1.50;;;;;;;;;;5094337;28;20225;-75
2022/04/03 03:04:46;;;;;;;3.33;1.70;;;;;;;;;;5094745;28;20220;-76
2022/04/03 03:07:14;;;;;;;2.47;1.60;;;;;;;;;;5094118;28;20564;-76
2022/04/03 03:09:43;;;;;;;1.60;1.50;;;;;;;;;;5094242;28;20208;-76
2022/04/03 03:12:11;;;;;;;1.98;1.85;;;;;;;;;;5094066;28;20204;-76
2022/04/03 03:14:38;;;;;;;1.77;1.67;;;;;;;;;;5094439;28;20644;-76
2022/04/03 03:17:05;;;;;;;1.88;1.77;;;;;;;;;;5094482;28;20242;-74
2022/04/03 03:19:33;;;;;;;1.73;1.60;;;;;;;;;;5094447;28;20672;-76
2022/04/03 03:22:00;;;;;;;1.92;1.73;;;;;;;;;;5094022;28;20208;-76
2022/04/03 03:24:27;;;;;;;1.70;1.60;;;;;;;;;;5094544;28;20235;-76
2022/04/03 03:26:56;;;;;;;1.73;1.52;;;;;;;;;;5094423;28;20227;-76
2022/04/03 03:29:23;;;;;;;1.08;1.08;;;;;;;;;;5094331;28;20200;-75
2022/04/03 03:31:50;;;;;;;3.47;1.67;;;;;;;;;;5094287;28;20200;-76
2022/04/03 03:34:17;;;;;;;1.40;1.30;;;;;;;;;;5085821;28;20703;-75
2022/04/03 03:36:45;;;;;;;1.30;1.23;;;;;;;;;;5094090;28;20196;-76
2022/04/03 03:39:12;;;;;;;2.08;1.45;;;;;;;;;;5093684;28;20208;-76
2022/04/03 03:41:40;;;;;;;1.45;1.35;;;;;;;;;;5094176;28;20200;-74
2022/04/03 03:44:10;;;;;;;1.90;1.80;;;;;;;;;;5093931;28;20311;-76
2022/04/03 03:46:39;;;;;;;1.65;1.55;;;;;;;;;;5094354;28;20564;-76
2022/04/03 03:49:06;;;;;;;2.08;1.30;;;;;;;;;;5093901;28;20295;-75
2022/04/03 03:54:08;;;;;;;2.03;1.42;;;;;;;;;;5101809;23;20232;-82
2022/04/03 03:56:36;;;;;;;1.92;1.60;;;;;;;;;;5075594;28;20663;-81
2022/04/03 03:59:05;;;;;;;2.33;1.50;;;;;;;;;;5075504;28;20255;-81
2022/04/03 04:01:34;;;;;;;2.47;1.88;;;;;;;;;;5080737;28;20223;-80
2022/04/03 04:04:02;;;;;;;1.42;1.33;;;;;;;;;;5098102;28;20242;-79
2022/04/03 04:06:29;;;;;;;1.58;1.48;;;;;;;;;;5105267;28;20205;-79
2022/04/03 04:08:56;;;;;;;1.52;1.40;;;;;;;;;;5104301;28;20208;-82
2022/04/03 04:11:23;;;;;;;1.45;1.33;;;;;;;;;;5096428;28;20588;-80
2022/04/03 04:13:51;;;;;;;1.65;1.30;;;;;;;;;;5097052;28;20227;-81
2022/04/03 04:16:19;;;;;;;1.42;1.33;;;;;;;;;;5096250;28;20263;-81
2022/04/03 04:18:47;;;;;;;1.95;1.63;;;;;;;;;;5094608;28;20211;-81
2022/04/03 04:21:15;;;;;;;1.70;1.60;;;;;;;;;;5094793;28;20287;-81
2022/04/03 04:23:42;;;;;;;4.85;2.17;;;;;;;;;;5095000;28;20744;-80
2022/04/03 04:26:10;;;;;;;3.05;1.83;;;;;;;;;;5085848;28;20599;-81
2022/04/03 04:28:37;;;;;;;3.03;2.58;;;;;;;;;;5074372;28;20197;-81
2022/04/03 04:31:04;;;;;;;3.88;2.47;;;;;;;;;;5074897;28;20296;-81
2022/04/03 04:33:32;;;;;;;8.43;3.50;;;;;;;;;;5079671;28;20790;-80
2022/04/03 04:36:00;;;;;;;3.95;2.65;;;;;;;;;;5075721;28;20197;-80
2022/04/03 04:38:28;;;;;;;3.00;2.10;;;;;;;;;;5074404;28;20201;-80
2022/04/03 04:40:55;;;;;;;2.55;1.80;;;;;;;;;;5075058;28;20246;-81
2022/04/03 04:43:23;;;;;;;2.10;1.80;;;;;;;;;;5074709;28;20282;-79
2022/04/03 04:45:50;;;;;;;2.97;2.35;;;;;;;;;;5074282;28;20247;-80
2022/04/03 04:48:17;;;;;;;2.78;2.05;;;;;;;;;;5074013;28;20201;-79
2022/04/03 04:50:45;;;;;;;2.33;2.13;;;;;;;;;;5073708;28;20205;-80
2022/04/03 04:53:13;;;;;;;3.05;1.70;;;;;;;;;;5073198;28;20282;-80
2022/04/03 04:55:41;;;;;;;4.25;1.65;;;;;;;;;;5092303;28;20257;-79
2022/04/03 04:58:08;;;;;;;1.20;1.10;;;;;;;;;;5094440;28;20201;-81
2022/04/03 05:00:35;;;;;;;1.73;1.50;;;;;;;;;;5094648;28;20201;-80
2022/04/03 05:03:03;;;;;;;2.00;1.50;;;;;;;;;;5094132;28;20225;-79
2022/04/03 05:05:32;;;;;;;1.40;1.30;;;;;;;;;;5093564;28;20204;-80
2022/04/03 05:08:00;;;;;;;1.83;1.60;;;;;;;;;;5094049;28;20200;-81
2022/04/03 05:10:31;;;;;;;1.75;1.65;;;;;;;;;;5093387;28;20222;-79
2022/04/03 05:12:59;;;;;;;1.45;1.35;;;;;;;;;;5093694;28;20761;-80
2022/04/03 05:15:28;;;;;;;1.63;1.40;;;;;;;;;;5093335;28;20200;-81
2022/04/03 05:17:55;;;;;;;1.58;1.48;;;;;;;;;;5093547;28;20238;-80
2022/04/03 05:20:22;;;;;;;1.77;1.48;;;;;;;;;;5093270;28;20192;-81
2022/04/03 05:22:50;;;;;;;1.48;1.38;;;;;;;;;;5093258;28;20672;-82
2022/04/03 05:25:17;;;;;;;1.73;1.17;;;;;;;;;;5093287;28;20223;-80
2022/04/03 05:27:45;;;;;;;1.30;1.20;;;;;;;;;;5092960;28;20246;-79
2022/04/03 05:30:14;;;;;;;1.40;1.30;;;;;;;;;;5093218;28;20208;-79
2022/04/03 05:32:42;;;;;;;1.20;1.20;;;;;;;;;;5092517;28;20295;-79
2022/04/03 05:35:13;;;;;;;1.80;1.70;;;;;;;;;;5093496;28;20207;-79
2022/04/03 05:37:40;;;;;;;1.35;1.25;;;;;;;;;;5093254;28;20200;-80
2022/04/03 05:40:11;;;;;;;1.58;1.48;;;;;;;;;;5093180;28;20200;-79
2022/04/03 05:42:39;;;;;;;1.33;1.23;;;;;;;;;;5093017;28;20201;-79
2022/04/03 05:45:09;;;;;;;1.65;1.55;;;;;;;;;;5092459;28;20220;-79
2022/04/03 05:47:37;;;;;;;1.30;1.20;;;;;;;;;;5092015;28;20573;-76
2022/04/03 05:50:06;;;;;;;1.98;1.85;;;;;;;;;;5091753;28;20192;-76
2022/04/03 05:52:44;;;;;;;1.50;1.40;;;;;;;;;;5091418;28;20200;-76
2022/04/03 05:55:12;;;;;;;3.58;2.33;;;;;;;;;;5092104;28;20637;-76
2022/04/03 05:57:39;;;;;;;1.55;1.30;;;;;;;;;;5091059;28;20254;-76
2022/04/03 06:00:12;;;;;;;1.70;1.40;;;;;;;;;;5091778;28;20710;-76
2022/04/03 06:02:48;;;;;;;1.70;1.60;;;;;;;;;;5091503;28;20269;-76
2022/04/03 06:05:15;;;;;;;2.28;1.90;;;;;;;;;;5092557;28;20262;-76
2022/04/03 06:07:42;;;;;;;3.10;2.55;;;;;;;;;;5095796;28;20204;-76
2022/04/03 06:10:10;;;;;;;2.95;2.67;;;;;;;;;;5095489;28;20290;-76
2022/04/03 06:12:38;;;;;;;2.88;2.60;;;;;;;;;;5095285;28;20676;-77
2022/04/03 06:15:08;;;;;;;2.70;2.50;;;;;;;;;;5095528;28;20196;-76
2022/04/03 06:17:35;;;;;;;4.88;2.42;;;;;;;;;;5095701;28;20733;-76
2022/04/03 06:20:02;;;;;;;2.25;2.05;;;;;;;;;;5095529;28;20204;-76
2022/04/03 06:22:29;;;;;;;1.83;1.67;;;;;;;;;;5095094;28;20682;-76
2022/04/03 06:24:57;;;;;;;3.85;2.58;;;;;;;;;;5095024;28;20236;-76
2022/04/03 06:27:26;;;;;;;2.67;2.45;;;;;;;;;;5090876;28;20200;-76
2022/04/03 06:29:53;;;;;;;2.40;2.20;;;;;;;;;;5075515;28;20205;-76
2022/04/03 06:32:22;;;;;;;3.22;2.60;;;;;;;;;;5074761;28;20258;-75
2022/04/03 06:34:49;;;;;;;3.97;2.40;;;;;;;;;;5074763;28;20587;-76
2022/04/03 06:37:17;;;;;;;2.50;2.30;;;;;;;;;;5074731;28;20250;-76
2022/04/03 06:39:44;;;;;;;3.08;2.70;;;;;;;;;;5075304;28;20196;-76
2022/04/03 06:42:11;;;;;;;4.95;3.80;;;;;;;;;;5074802;28;20209;-76
2022/04/03 06:44:39;;;;;;;3.47;3.17;;;;;;;;;;5074651;28;20228;-76
2022/04/03 06:47:07;;;;;;;3.95;3.65;;;;;;;;;;5074736;28;20209;-75
2022/04/03 06:49:36;;;;;;;5.18;2.97;;;;;;;;;;5074906;28;20201;-75
2022/04/03 06:52:04;;;;;;;3.05;2.67;;;;;;;;;;5074079;28;20459;-76
2022/04/03 06:54:31;;;;;;;2.80;2.60;;;;;;;;;;5080083;28;20239;-76
2022/04/03 06:56:59;;;;;;;2.45;2.20;;;;;;;;;;5094996;28;20249;-76
2022/04/03 06:59:26;;;;;;;2.63;2.30;;;;;;;;;;5095085;28;20632;-75
2022/04/03 07:01:53;;;;;;;3.25;2.60;;;;;;;;;;5094298;28;20599;-76
2022/04/03 07:04:20;;;;;;;2.63;2.42;;;;;;;;;;5097991;28;20224;-76
2022/04/03 07:06:49;;;;;;;2.42;2.22;;;;;;;;;;5097348;28;20200;-75
2022/04/03 07:09:17;;;;;;;3.47;3.17;;;;;;;;;;5094541;28;20610;-75
2022/04/03 07:11:44;;;;;;;5.43;4.05;;;;;;;;;;5094646;28;20605;-75
2022/04/03 07:14:11;;;;;;;3.75;3.45;;;;;;;;;;5094367;28;20231;-76
2022/04/03 07:16:39;;;;;;;3.28;2.97;;;;;;;;;;5093786;28;20201;-76
2022/04/03 07:19:06;;;;;;;3.20;2.90;;;;;;;;;;5094121;28;20620;-75
2022/04/03 07:21:34;;;;;;;3.25;2.95;;;;;;;;;;5094712;28;20208;-76
2022/04/03 07:24:04;;;;;;;2.75;2.40;;;;;;;;;;5094121;28;20231;-75
2022/04/03 07:26:31;;;;;;;3.55;3.25;;;;;;;;;;5094707;28;20231;-76
2022/04/03 07:28:59;;;;;;;3.15;2.78;;;;;;;;;;5094463;28;20218;-76
2022/04/03 07:31:28;;;;;;;2.83;2.58;;;;;;;;;;5094284;28;20204;-76
2022/04/03 07:33:56;;;;;;;2.35;2.13;;;;;;;;;;5094164;28;20228;-76
2022/04/03 07:36:23;;;;;;;2.55;2.17;;;;;;;;;;5094365;28;20211;-76
2022/04/03 07:38:52;;;;;;;3.03;2.80;;;;;;;;;;5093914;28;20204;-76
2022/04/03 07:41:20;;;;;;;3.47;3.15;;;;;;;;;;5094292;28;20196;-76
2022/04/03 07:43:48;;;;;;;4.60;3.92;;;;;;;;;;5093394;28;20293;-76
2022/04/03 07:46:16;;;;;;;5.25;3.30;;;;;;;;;;5093654;28;20310;-76
2022/04/03 07:48:44;;;;;;;3.55;3.25;;;;;;;;;;5093977;28;20637;-76
2022/04/03 07:51:12;;;;;;;3.28;2.78;;;;;;;;;;5094223;28;20207;-76
2022/04/03 07:53:39;;;;;;;2.83;2.05;;;;;;;;;;5093369;28;20644;-76
2022/04/03 07:56:07;;;;;;;2.03;1.60;;;;;;;;;;5093806;28;20200;-76
2022/04/03 07:58:36;;;;;;;2.45;2.25;;;;;;;;;;5093317;28;20211;-76
2022/04/03 08:01:04;;;;;;;1.50;1.30;;;;;;;;;;5094112;28;20632;-76
2022/04/03 08:03:31;;;;;;;1.70;1.40;;;;;;;;;;5093422;28;20220;-76
2022/04/03 08:05:59;;;;;;;2.53;2.35;;;;;;;;;;5093695;28;20216;-76
2022/04/03 08:08:26;;;;;;;1.40;1.30;;;;;;;;;;5093662;28;20208;-76
2022/04/03 08:10:53;;;;;;;1.50;1.40;;;;;;;;;;5093746;28;20201;-76
2022/04/03 08:13:21;;;;;;;1.60;1.50;;;;;;;;;;5092924;28;20224;-76
2022/04/03 08:15:50;;;;;;;1.70;1.55;;;;;;;;;;5093644;28;20246;-76
2022/04/03 08:18:19;;;;;;;1.35;1.25;;;;;;;;;;5093596;28;20572;-75
2022/04/03 08:20:46;;;;;;;1.80;1.70;;;;;;;;;;5095807;28;20680;-77
2022/04/03 08:23:14;;;;;;;1.83;1.30;;;;;;;;;;5096622;28;20228;-77
2022/04/03 08:25:44;;;;;;;2.17;1.98;;;;;;;;;;5094571;28;20228;-77
2022/04/03 08:28:12;;;;;;;1.80;1.70;;;;;;;;;;5093557;28;20238;-78
2022/04/03 08:30:40;;;;;;;1.88;1.77;;;;;;;;;;5094126;28;20207;-78
2022/04/03 08:33:10;;;;;;;2.40;1.70;;;;;;;;;;5092976;28;20220;-77
2022/04/03 08:35:40;;;;;;;1.55;1.45;;;;;;;;;;5092897;28;20723;-76
2022/04/03 08:38:08;;;;;;;2.60;1.85;;;;;;;;;;5093440;28;20200;-75
2022/04/03 08:40:36;;;;;;;1.73;1.63;;;;;;;;;;5092890;28;20687;-76
2022/04/03 08:43:05;;;;;;;1.63;1.50;;;;;;;;;;5093042;28;20219;-77
2022/04/03 08:45:33;;;;;;;2.13;1.90;;;;;;;;;;5092927;28;20219;-76
2022/04/03 08:48:02;;;;;;;1.88;1.73;;;;;;;;;;5093094;28;20204;-75
2022/04/03 08:50:34;;;;;;;1.77;1.67;;;;;;;;;;5092871;28;20203;-76
2022/04/03 08:53:05;;;;;;;2.30;2.10;;;;;;;;;;5092451;28;20247;-76
2022/04/03 08:55:33;;;;;;;2.10;1.90;;;;;;;;;;5092833;28;20231;-76
2022/04/03 08:58:02;;;;;;;1.73;1.63;;;;;;;;;;5092929;28;20200;-75
2022/04/03 09:00:31;;;;;;;1.58;1.48;;;;;;;;;;5092723;28;20200;-75
2022/04/03 09:03:00;;;;;;;1.50;1.30;;;;;;;;;;5092405;28;20266;-76
2022/04/03 09:05:38;;;;;;;2.20;2.10;;;;;;;;;;5092501;28;20207;-75
2022/04/03 09:08:07;;;;;;;2.75;2.05;;;;;;;;;;5092809;28;20299;-76
2022/04/03 09:10:35;;;;;;;1.60;1.50;;;;;;;;;;5092528;28;20200;-76
2022/04/03 09:13:03;;;;;;;3.28;2.40;;;;;;;;;;5092415;28;20282;-76
2022/04/03 09:15:32;;;;;;;1.50;1.40;;;;;;;;;;5092456;28;20200;-77
2022/04/03 09:18:00;;;;;;;1.67;1.58;;;;;;;;;;5092430;28;20204;-76
2022/04/03 09:20:31;;;;;;;1.95;1.85;;;;;;;;;;5092152;28;20204;-76
2022/04/03 09:23:01;;;;;;;1.80;1.70;;;;;;;;;;5092411;28;20236;-76
2022/04/03 09:25:31;;;;;;;1.95;1.75;;;;;;;;;;5092368;28;20702;-76
2022/04/03 09:28:01;;;;;;;2.85;1.77;;;;;;;;;;5092623;28;20706;-77
2022/04/03 09:30:33;;;;;;;2.13;1.92;;;;;;;;;;5092382;28;20208;-76
2022/04/03 09:33:02;;;;;;;2.38;2.17;;;;;;;;;;5092428;28;20220;-76
2022/04/03 09:35:31;;;;;;;1.80;1.63;;;;;;;;;;5092240;28;20204;-76
2022/04/03 09:38:15;;;;;;;2.15;2.05;;;;;;;;;;5092495;28;20196;-76
2022/04/03 09:40:45;;;;;;;1.75;1.65;;;;;;;;;;5091992;28;20245;-76
2022/04/03 09:43:21;;;;;;;2.35;2.22;;;;;;;;;;5090654;28;20273;-76
2022/04/03 09:45:51;;;;;;;2.17;1.95;;;;;;;;;;5091771;28;20222;-76
2022/04/03 09:48:25;;;;;;;2.47;2.28;;;;;;;;;;5092027;28;20585;-77
2022/04/03 09:51:05;;;;;;;2.50;2.30;;;;;;;;;;5092295;28;20207;-76
2022/04/03 09:53:52;;;;;;;2.22;2.03;;;;;;;;;;5091961;28;20223;-77
2022/04/03 09:56:31;;;;;;;2.13;2.03;;;;;;;;;;5092762;28;20196;-77
2022/04/03 09:59:01;;;;;;;2.65;2.45;;;;;;;;;;5092513;28;20299;-77
2022/04/03 10:01:30;;;;;;;2.17;1.98;;;;;;;;;;5092080;28;20211;-77
2022/04/03 10:04:00;;;;;;;3.05;2.83;;;;;;;;;;5091793;28;20246;-76
2022/04/03 10:06:28;;;;;;;2.22;2.03;;;;;;;;;;5091917;28;20220;-78
2022/04/03 10:08:57;;;;;;;1.98;1.88;;;;;;;;;;5092779;28;20203;-78
2022/04/03 10:11:25;;;;;;;2.38;2.17;;;;;;;;;;5092773;28;20253;-78
2022/04/03 10:13:53;;;;;;;2.13;2.00;;;;;;;;;;5092310;28;20216;-78
2022/04/03 10:16:22;;;;;;;2.38;2.17;;;;;;;;;;5092645;28;20204;-78
2022/04/03 10:18:51;;;;;;;3.03;2.38;;;;;;;;;;5092030;28;20192;-77
2022/04/03 10:21:29;;;;;;;3.95;2.20;;;;;;;;;;5091610;28;20616;-76
2022/04/03 10:24:02;;;;;;;3.72;2.58;;;;;;;;;;5091866;28;20228;-77
2022/04/03 10:26:30;;;;;;;2.70;2.50;;;;;;;;;;5091446;28;20283;-76
2022/04/03 10:28:58;;;;;;;2.90;2.67;;;;;;;;;;5091292;28;20258;-76
2022/04/03 10:31:26;;;;;;;2.80;2.30;;;;;;;;;;5091233;28;20200;-77
2022/04/03 10:33:53;;;;;;;2.55;2.35;;;;;;;;;;5091289;28;20223;-77
2022/04/03 10:36:27;;;;;;;2.58;2.38;;;;;;;;;;5089854;28;20219;-77
2022/04/03 10:39:01;;;;;;;2.22;2.03;;;;;;;;;;5091719;28;20296;-76
2022/04/03 10:41:31;;;;;;;3.28;2.95;;;;;;;;;;5091470;28;20703;-77
2022/04/03 10:44:18;;;;;;;2.90;2.67;;;;;;;;;;5091177;28;20315;-76
2022/04/03 10:47:21;;;;;;;2.17;2.03;;;;;;;;;;5091545;28;20255;-76
2022/04/03 10:49:52;;;;;;;4.28;2.38;;;;;;;;;;5091442;28;20292;-77
2022/04/03 10:52:27;;;;;;;3.83;3.53;;;;;;;;;;5092740;28;20196;-77
2022/04/03 10:55:02;;;;;;;3.28;2.97;;;;;;;;;;5095235;28;20263;-77
2022/04/03 10:57:34;;;;;;;2.42;2.22;;;;;;;;;;5097370;28;20659;-78
2022/04/03 11:00:34;;;;;;;3.35;3.13;;;;;;;;;;5096397;28;20192;-77
2022/04/03 11:03:03;;;;;;;2.80;2.60;;;;;;;;;;5095696;28;20228;-78
2022/04/03 11:05:45;;;;;;;2.42;2.20;;;;;;;;;;5094979;28;20204;-78
2022/04/03 11:08:20;;;;;;;2.80;2.60;;;;;;;;;;5095994;28;20247;-77
2022/04/03 11:10:52;;;;;;;3.10;2.58;;;;;;;;;;5095450;28;20204;-77
2022/04/03 11:13:22;;;;;;;2.78;2.00;;;;;;;;;;5095349;28;20247;-77
2022/04/03 11:15:51;;;;;;;2.22;1.90;;;;;;;;;;5094938;28;20197;-77
2022/04/03 11:18:29;;;;;;;2.33;1.90;;;;;;;;;;5095862;28;20695;-78
2022/04/03 11:21:08;;;;;;;2.35;1.75;;;;;;;;;;5096532;28;20284;-78
2022/04/03 11:23:38;;;;;;;4.68;2.40;;;;;;;;;;5095237;28;20255;-78
2022/04/03 11:26:06;;;;;;;2.53;2.10;;;;;;;;;;5095991;28;20208;-78
2022/04/03 11:28:35;;;;;;;4.45;2.83;;;;;;;;;;5095770;28;20669;-78
2022/04/03 11:31:03;;;;;;;2.33;2.10;;;;;;;;;;5095380;28;20633;-78
2022/04/03 11:33:31;;;;;;;2.50;2.30;;;;;;;;;;5095252;28;20235;-78
2022/04/03 11:36:04;;;;;;;2.45;2.25;;;;;;;;;;5096288;28;20208;-78
2022/04/03 11:38:36;;;;;;;1.90;1.80;;;;;;;;;;5094916;28;20737;-78
2022/04/03 11:41:07;;;;;;;2.40;1.85;;;;;;;;;;5095141;28;20483;-78
2022/04/03 11:43:35;;;;;;;1.80;1.70;;;;;;;;;;5094830;28;20216;-78
2022/04/03 11:46:04;;;;;;;1.90;1.80;;;;;;;;;;5094945;28;20223;-78
2022/04/03 11:48:34;;;;;;;2.08;1.92;;;;;;;;;;5094520;28;20216;-78
2022/04/03 11:51:07;;;;;;;1.80;1.67;;;;;;;;;;5095231;28;20250;-77
2022/04/03 11:53:35;;;;;;;2.25;1.60;;;;;;;;;;5094240;28;20603;-78
2022/04/03 11:56:13;;;;;;;1.80;1.70;;;;;;;;;;5094874;28;20207;-78
2022/04/03 11:58:43;;;;;;;1.77;1.67;;;;;;;;;;5094821;28;20196;-78
2022/04/03 12:01:10;;;;;;;3.10;1.63;;;;;;;;;;5094845;28;20680;-78
2022/04/03 12:03:39;;;;;;;1.55;1.45;;;;;;;;;;5093064;28;20224;-78
2022/04/03 12:06:18;;;;;;;1.73;1.63;;;;;;;;;;5094748;28;20269;-78
2022/04/03 12:08:47;;;;;;;1.88;1.75;;;;;;;;;;5094698;28;20227;-79
2022/04/03 12:11:26;;;;;;;1.80;1.70;;;;;;;;;;5094694;28;20211;-79
2022/04/03 12:13:56;;;;;;;2.53;2.33;;;;;;;;;;5094745;28;20715;-79
2022/04/03 12:16:25;;;;;;;2.10;2.00;;;;;;;;;;5094801;28;20196;-79
2022/04/03 12:19:00;;;;;;;1.75;1.65;;;;;;;;;;5094899;28;20235;-78
2022/04/03 12:21:42;;;;;;;2.75;1.90;;;;;;;;;;5094545;28;20204;-79
2022/04/03 12:24:13;;;;;;;1.90;1.80;;;;;;;;;;5094000;28;20224;-79
2022/04/03 12:26:46;;;;;;;1.33;1.33;;;;;;;;;;5094480;28;20204;-78
2022/04/03 12:29:15;;;;;;;1.70;1.50;;;;;;;;;;5094522;28;20246;-78
2022/04/03 12:31:44;;;;;;;1.83;1.70;;;;;;;;;;5094222;28;20200;-79
2022/04/03 12:34:14;;;;;;;3.40;1.92;;;;;;;;;;5095830;28;20700;-78
2022/04/03 12:36:45;;;;;;;1.98;1.65;;;;;;;;;;5096792;28;20707;-78
2022/04/03 12:39:31;;;;;;;2.03;1.92;;;;;;;;;;5095824;28;20207;-78
2022/04/03 12:42:20;;;;;;;1.95;1.80;;;;;;;;;;5095026;28;20226;-78
2022/04/03 12:44:52;;;;;;;2.50;2.00;;;;;;;;;;5095349;28;20273;-78
2022/04/03 12:47:22;;;;;;;2.60;2.40;;;;;;;;;;5095714;28;20208;-79
2022/04/03 12:50:06;;;;;;;4.57;4.28;;;;;;;;;;5096424;28;20264;-78
2022/04/03 12:52:45;;;;;;;2.92;2.70;;;;;;;;;;5095613;28;20654;-78
2022/04/03 12:55:38;;;;;;;2.22;2.10;;;;;;;;;;5095303;28;20200;-78
2022/04/03 12:58:26;;;;;;;1.98;1.88;;;;;;;;;;5096492;28;20200;-78
2022/04/03 13:00:57;;;;;;;3.78;2.10;;;;;;;;;;5095768;28;20278;-78
2022/04/03 13:03:33;;;;;;;2.67;2.05;;;;;;;;;;5094605;28;20228;-78
2022/04/03 13:06:03;;;;;;;2.13;1.92;;;;;;;;;;5096270;28;20204;-77
2022/04/03 13:08:42;;;;;;;2.50;2.03;;;;;;;;;;5096614;28;20224;-78
2022/04/03 13:11:09;;;;;;;3.55;2.30;;;;;;;;;;5097458;28;20207;-77
2022/04/03 13:13:40;;;;;;;2.50;2.30;;;;;;;;;;5096730;28;20216;-78
2022/04/03 13:16:07;;;;;;;2.10;2.00;;;;;;;;;;5097188;28;20200;-78
2022/04/03 13:18:35;;;;;;;3.05;2.85;;;;;;;;;;5098037;28;20200;-78
2022/04/03 13:21:02;;;;;;;2.47;2.28;;;;;;;;;;5096311;28;20206;-78
2022/04/03 13:23:30;;;;;;;2.33;2.13;;;;;;;;;;5095001;28;20708;-78
2022/04/03 13:25:58;;;;;;;2.38;2.20;;;;;;;;;;5093519;28;20196;-78
2022/04/03 13:28:25;;;;;;;2.55;1.80;;;;;;;;;;5094039;28;20220;-78
2022/04/03 13:30:54;;;;;;;1.90;1.80;;;;;;;;;;5095102;28;20208;-78
2022/04/03 13:33:21;;;;;;;4.25;2.55;;;;;;;;;;5094940;28;20224;-78
2022/04/03 13:35:48;;;;;;;2.70;2.50;;;;;;;;;;5095030;28;20208;-78
2022/04/03 13:38:16;;;;;;;3.17;2.05;;;;;;;;;;5094368;28;20703;-78
2022/04/03 13:40:44;;;;;;;2.17;2.00;;;;;;;;;;5095649;28;20208;-78
2022/04/03 13:43:11;;;;;;;6.97;3.08;;;;;;;;;;5093340;28;20265;-78
2022/04/03 13:45:59;;;;;;;4.30;4.00;;;;;;;;;;5094352;28;20589;-78
2022/04/03 13:48:33;;;;;;;3.35;3.08;;;;;;;;;;5094393;28;20200;-78
2022/04/03 13:51:01;;;;;;;2.30;2.10;;;;;;;;;;5093936;28;20212;-78
2022/04/03 13:53:29;;;;;;;1.83;1.73;;;;;;;;;;5093572;28;20230;-78
2022/04/03 13:55:57;;;;;;;1.80;1.70;;;;;;;;;;5074879;28;20259;-78
2022/04/03 13:58:26;;;;;;;3.15;1.88;;;;;;;;;;5074336;28;20200;-78
2022/04/03 14:00:54;;;;;;;1.40;1.33;;;;;;;;;;5074606;28;20639;-78
2022/04/03 14:03:21;;;;;;;2.00;1.90;;;;;;;;;;5072982;28;20315;-78
2022/04/03 14:05:50;;;;;;;1.90;1.60;;;;;;;;;;5073605;28;20243;-78
2022/04/03 14:08:18;;;;;;;1.63;1.52;;;;;;;;;;5072717;28;20212;-78
2022/04/03 14:10:45;;;;;;;2.33;2.13;;;;;;;;;;5073437;28;20217;-77
2022/04/03 14:13:12;;;;;;;2.30;2.03;;;;;;;;;;5073146;28;20709;-79
2022/04/03 14:15:40;;;;;;;1.95;1.85;;;;;;;;;;5073859;28;20237;-78
2022/04/03 14:18:07;;;;;;;2.50;1.90;;;;;;;;;;5074714;28;20760;-78
2022/04/03 14:20:35;;;;;;;3.10;1.75;;;;;;;;;;5074583;28;20630;-78
2022/04/03 14:23:05;;;;;;;2.38;1.50;;;;;;;;;;5074968;28;20224;-78
2022/04/03 14:25:33;;;;;;;2.25;2.05;;;;;;;;;;5093073;28;20234;-78
2022/04/03 14:28:01;;;;;;;1.83;1.70;;;;;;;;;;5099565;28;20230;-77
2022/04/03 14:30:29;;;;;;;1.63;1.52;;;;;;;;;;5099241;28;20269;-77
2022/04/03 14:32:57;;;;;;;1.80;1.70;;;;;;;;;;5098357;28;20204;-79
2022/04/03 14:35:24;;;;;;;2.05;1.73;;;;;;;;;;5098151;28;20200;-79
2022/04/03 14:37:52;;;;;;;1.63;1.52;;;;;;;;;;5099488;28;20200;-78
2022/04/03 14:40:22;;;;;;;1.50;1.40;;;;;;;;;;5100593;28;20199;-78
2022/04/03 14:42:49;;;;;;;1.38;1.27;;;;;;;;;;5096671;28;20192;-79
2022/04/03 14:45:17;;;;;;;1.65;1.55;;;;;;;;;;5096940;28;20211;-78
2022/04/03 14:47:44;;;;;;;1.60;1.50;;;;;;;;;;5097329;28;20211;-78
2022/04/03 14:50:14;;;;;;;1.58;1.48;;;;;;;;;;5100764;28;20235;-76
2022/04/03 14:52:41;;;;;;;1.50;1.40;;;;;;;;;;5097102;28;20205;-76
2022/04/03 14:55:10;;;;;;;1.92;1.60;;;;;;;;;;5098995;28;20207;-77
2022/04/03 14:57:39;;;;;;;1.17;1.10;;;;;;;;;;5094683;28;20196;-77
2022/04/03 15:00:09;;;;;;;1.73;1.13;;;;;;;;;;5094739;28;20185;-77